sensor_id;sensor_type;location;lat;lon;timestamp;temperature;humidity
77207;DHT22;66190;50.708;7.906;2023-02-15T00:01:42;2.20;99.90
77207;DHT22;66190;50.708;7.906;2023-02-15T00:04:09;2.20;99.90
77207;DHT22;66190;50.708;7.906;2023-02-15T00:06:37;2.10;99.90
77207;DHT22;66190;50.708;7.906;2023-02-15T00:09:03;2.00;99.90
77207;DHT22;66190;50.708;7.906;2023-02-15T00:11:29;2.00;99.90
77207;DHT22;66190;50.708;7.906;2023-02-15T00:14:18;2.00;99.90
77207;DHT22;66190;50.708;7.906;2023-02-15T00:16:45;2.00;99.90
77207;DHT22;66190;50.708;7.906;2023-02-15T00:19:12;2.00;99.90
77207;DHT22;66190;50.708;7.906;2023-02-15T00:21:39;2.00;99.90
77207;DHT22;66190;50.708;7.906;2023-02-15T00:24:08;1.90;99.90
77207;DHT22;66190;50.708;7.906;2023-02-15T00:26:34;1.90;99.90
77207;DHT22;66190;50.708;7.906;2023-02-15T00:29:00;1.70;99.90
77207;DHT22;66190;50.708;7.906;2023-02-15T00:31:27;1.60;99.90
77207;DHT22;66190;50.708;7.906;2023-02-15T00:33:53;1.50;99.90
77207;DHT22;66190;50.708;7.906;2023-02-15T00:36:19;1.40;99.90
77207;DHT22;66190;50.708;7.906;2023-02-15T00:38:44;1.20;99.90
77207;DHT22;66190;50.708;7.906;2023-02-15T00:41:10;1.20;99.90
77207;DHT22;66190;50.708;7.906;2023-02-15T00:43:36;1.10;99.90
77207;DHT22;66190;50.708;7.906;2023-02-15T00:46:03;1.00;99.90
77207;DHT22;66190;50.708;7.906;2023-02-15T00:48:29;1.10;99.90
77207;DHT22;66190;50.708;7.906;2023-02-15T00:50:57;1.00;99.90
77207;DHT22;66190;50.708;7.906;2023-02-15T00:53:24;1.00;99.90
77207;DHT22;66190;50.708;7.906;2023-02-15T00:55:50;0.80;99.90
77207;DHT22;66190;50.708;7.906;2023-02-15T00:58:15;0.60;99.90
77207;DHT22;66190;50.708;7.906;2023-02-15T01:00:44;0.50;99.90
77207;DHT22;66190;50.708;7.906;2023-02-15T01:03:10;0.50;99.90
77207;DHT22;66190;50.708;7.906;2023-02-15T01:05:36;0.50;99.90
77207;DHT22;66190;50.708;7.906;2023-02-15T01:08:02;0.50;99.90
77207;DHT22;66190;50.708;7.906;2023-02-15T01:10:28;0.50;99.90
77207;DHT22;66190;50.708;7.906;2023-02-15T01:12:55;0.50;99.90
77207;DHT22;66190;50.708;7.906;2023-02-15T01:15:21;0.40;99.90
77207;DHT22;66190;50.708;7.906;2023-02-15T01:17:46;0.30;99.90
77207;DHT22;66190;50.708;7.906;2023-02-15T01:20:19;0.40;99.90
77207;DHT22;66190;50.708;7.906;2023-02-15T01:22:44;0.60;99.90
77207;DHT22;66190;50.708;7.906;2023-02-15T01:25:10;0.80;99.90
77207;DHT22;66190;50.708;7.906;2023-02-15T01:27:36;0.90;99.90
77207;DHT22;66190;50.708;7.906;2023-02-15T01:30:01;0.90;99.90
77207;DHT22;66190;50.708;7.906;2023-02-15T01:32:30;1.00;99.90
77207;DHT22;66190;50.708;7.906;2023-02-15T01:34:56;1.10;99.90
77207;DHT22;66190;50.708;7.906;2023-02-15T01:37:21;1.00;99.90
77207;DHT22;66190;50.708;7.906;2023-02-15T01:39:47;1.00;99.90
77207;DHT22;66190;50.708;7.906;2023-02-15T01:42:12;1.20;99.90
77207;DHT22;66190;50.708;7.906;2023-02-15T01:44:57;1.40;99.90
77207;DHT22;66190;50.708;7.906;2023-02-15T01:47:39;1.40;99.90
77207;DHT22;66190;50.708;7.906;2023-02-15T01:50:25;1.50;99.90
77207;DHT22;66190;50.708;7.906;2023-02-15T01:53:31;1.60;99.90
77207;DHT22;66190;50.708;7.906;2023-02-15T01:56:00;1.50;99.90
77207;DHT22;66190;50.708;7.906;2023-02-15T01:58:28;1.50;99.90
77207;DHT22;66190;50.708;7.906;2023-02-15T02:00:59;1.60;99.90
77207;DHT22;66190;50.708;7.906;2023-02-15T02:06:19;1.50;99.90
77207;DHT22;66190;50.708;7.906;2023-02-15T02:08:45;1.40;99.90
77207;DHT22;66190;50.708;7.906;2023-02-15T02:11:13;1.40;99.90
77207;DHT22;66190;50.708;7.906;2023-02-15T02:13:43;1.30;99.90
77207;DHT22;66190;50.708;7.906;2023-02-15T02:24:35;1.10;99.90
77207;DHT22;66190;50.708;7.906;2023-02-15T02:32:58;0.90;99.90
77207;DHT22;66190;50.708;7.906;2023-02-15T02:38:00;0.60;99.90
77207;DHT22;66190;50.708;7.906;2023-02-15T02:44:12;0.50;99.90
77207;DHT22;66190;50.708;7.906;2023-02-15T02:49:13;0.60;99.90
77207;DHT22;66190;50.708;7.906;2023-02-15T02:51:38;0.50;99.90
77207;DHT22;66190;50.708;7.906;2023-02-15T02:54:05;0.50;99.90
77207;DHT22;66190;50.708;7.906;2023-02-15T02:56:39;0.40;99.90
77207;DHT22;66190;50.708;7.906;2023-02-15T02:59:13;0.30;99.90
77207;DHT22;66190;50.708;7.906;2023-02-15T03:01:52;0.20;99.90
77207;DHT22;66190;50.708;7.906;2023-02-15T03:04:29;0.10;99.90
77207;DHT22;66190;50.708;7.906;2023-02-15T03:07:20;0.20;99.90
77207;DHT22;66190;50.708;7.906;2023-02-15T03:09:51;0.00;99.90
77207;DHT22;66190;50.708;7.906;2023-02-15T03:12:40;-0.20;99.90
77207;DHT22;66190;50.708;7.906;2023-02-15T03:15:18;-0.30;99.90
77207;DHT22;66190;50.708;7.906;2023-02-15T03:17:49;-0.40;99.90
77207;DHT22;66190;50.708;7.906;2023-02-15T03:20:29;-0.30;99.90
77207;DHT22;66190;50.708;7.906;2023-02-15T03:23:04;-0.20;99.90
77207;DHT22;66190;50.708;7.906;2023-02-15T03:25:37;-0.20;99.90
77207;DHT22;66190;50.708;7.906;2023-02-15T03:28:11;-0.20;99.90
77207;DHT22;66190;50.708;7.906;2023-02-15T03:30:39;-0.20;99.90
77207;DHT22;66190;50.708;7.906;2023-02-15T03:33:07;-0.20;99.90
77207;DHT22;66190;50.708;7.906;2023-02-15T03:35:39;-0.20;99.90
77207;DHT22;66190;50.708;7.906;2023-02-15T03:38:07;-0.20;99.90
77207;DHT22;66190;50.708;7.906;2023-02-15T03:40:38;-0.20;99.90
77207;DHT22;66190;50.708;7.906;2023-02-15T03:46:02;-0.20;99.90
77207;DHT22;66190;50.708;7.906;2023-02-15T03:48:41;-0.10;99.90
77207;DHT22;66190;50.708;7.906;2023-02-15T03:51:12;-0.20;99.90
77207;DHT22;66190;50.708;7.906;2023-02-15T03:54:18;-0.10;99.90
77207;DHT22;66190;50.708;7.906;2023-02-15T03:57:04;-0.10;99.90
77207;DHT22;66190;50.708;7.906;2023-02-15T03:59:51;-0.20;99.90
77207;DHT22;66190;50.708;7.906;2023-02-15T04:05:24;-0.30;99.90
77207;DHT22;66190;50.708;7.906;2023-02-15T04:07:49;-0.30;99.90
77207;DHT22;66190;50.708;7.906;2023-02-15T04:10:15;-0.50;99.90
77207;DHT22;66190;50.708;7.906;2023-02-15T04:12:59;-0.50;99.90
77207;DHT22;66190;50.708;7.906;2023-02-15T04:15:25;-0.60;99.90
77207;DHT22;66190;50.708;7.906;2023-02-15T04:18:09;-0.70;99.90
77207;DHT22;66190;50.708;7.906;2023-02-15T04:20:34;-0.70;99.90
77207;DHT22;66190;50.708;7.906;2023-02-15T04:23:18;-0.80;99.90
77207;DHT22;66190;50.708;7.906;2023-02-15T04:26:04;-0.80;99.90
77207;DHT22;66190;50.708;7.906;2023-02-15T04:28:30;-0.80;99.90
77207;DHT22;66190;50.708;7.906;2023-02-15T04:30:56;-0.70;99.90
77207;DHT22;66190;50.708;7.906;2023-02-15T04:33:21;-0.70;99.90
77207;DHT22;66190;50.708;7.906;2023-02-15T04:35:47;-0.60;99.90
77207;DHT22;66190;50.708;7.906;2023-02-15T04:38:13;-0.60;99.90
77207;DHT22;66190;50.708;7.906;2023-02-15T04:40:38;-0.40;99.90
77207;DHT22;66190;50.708;7.906;2023-02-15T04:43:04;-0.20;99.90
77207;DHT22;66190;50.708;7.906;2023-02-15T04:45:29;-0.20;99.90
77207;DHT22;66190;50.708;7.906;2023-02-15T04:47:55;-0.10;99.90
77207;DHT22;66190;50.708;7.906;2023-02-15T04:50:21;-0.10;99.90
77207;DHT22;66190;50.708;7.906;2023-02-15T04:52:46;-0.10;99.90
77207;DHT22;66190;50.708;7.906;2023-02-15T04:55:13;-0.10;99.90
77207;DHT22;66190;50.708;7.906;2023-02-15T04:57:39;-0.10;99.90
77207;DHT22;66190;50.708;7.906;2023-02-15T05:00:05;-0.10;99.90
77207;DHT22;66190;50.708;7.906;2023-02-15T05:02:31;-0.10;99.90
77207;DHT22;66190;50.708;7.906;2023-02-15T05:04:57;0.00;99.90
77207;DHT22;66190;50.708;7.906;2023-02-15T05:07:23;0.00;99.90
77207;DHT22;66190;50.708;7.906;2023-02-15T05:09:48;0.00;99.90
77207;DHT22;66190;50.708;7.906;2023-02-15T05:12:14;0.00;99.90
77207;DHT22;66190;50.708;7.906;2023-02-15T05:14:39;0.00;99.90
77207;DHT22;66190;50.708;7.906;2023-02-15T05:17:05;0.00;99.90
77207;DHT22;66190;50.708;7.906;2023-02-15T05:19:31;0.00;99.90
77207;DHT22;66190;50.708;7.906;2023-02-15T05:21:57;-0.20;99.90
77207;DHT22;66190;50.708;7.906;2023-02-15T05:24:22;-0.20;99.90
77207;DHT22;66190;50.708;7.906;2023-02-15T05:27:10;-0.20;99.90
77207;DHT22;66190;50.708;7.906;2023-02-15T05:29:54;-0.20;99.90
77207;DHT22;66190;50.708;7.906;2023-02-15T05:32:20;-0.20;99.90
77207;DHT22;66190;50.708;7.906;2023-02-15T05:34:45;-0.20;99.90
77207;DHT22;66190;50.708;7.906;2023-02-15T05:37:11;-0.20;99.90
77207;DHT22;66190;50.708;7.906;2023-02-15T05:39:36;-0.20;99.90
77207;DHT22;66190;50.708;7.906;2023-02-15T05:42:02;-0.30;99.90
77207;DHT22;66190;50.708;7.906;2023-02-15T05:44:28;-0.30;99.90
77207;DHT22;66190;50.708;7.906;2023-02-15T05:46:54;-0.40;99.90
77207;DHT22;66190;50.708;7.906;2023-02-15T05:49:19;-0.50;99.90
77207;DHT22;66190;50.708;7.906;2023-02-15T05:51:45;-0.50;99.90
77207;DHT22;66190;50.708;7.906;2023-02-15T05:54:10;-0.60;99.90
77207;DHT22;66190;50.708;7.906;2023-02-15T05:56:36;-0.60;99.90
77207;DHT22;66190;50.708;7.906;2023-02-15T05:59:02;-0.60;99.90
77207;DHT22;66190;50.708;7.906;2023-02-15T06:01:28;-0.50;99.90
77207;DHT22;66190;50.708;7.906;2023-02-15T06:03:53;-0.60;99.90
77207;DHT22;66190;50.708;7.906;2023-02-15T06:06:21;-0.60;99.90
77207;DHT22;66190;50.708;7.906;2023-02-15T06:08:46;-0.70;99.90
77207;DHT22;66190;50.708;7.906;2023-02-15T06:11:12;-0.70;99.90
77207;DHT22;66190;50.708;7.906;2023-02-15T06:13:38;-0.70;99.90
77207;DHT22;66190;50.708;7.906;2023-02-15T06:16:03;-0.70;99.90
77207;DHT22;66190;50.708;7.906;2023-02-15T06:18:29;-0.80;99.90
77207;DHT22;66190;50.708;7.906;2023-02-15T06:20:54;-0.70;99.90
77207;DHT22;66190;50.708;7.906;2023-02-15T06:23:20;-0.70;99.90
77207;DHT22;66190;50.708;7.906;2023-02-15T06:25:46;-0.70;99.90
77207;DHT22;66190;50.708;7.906;2023-02-15T06:28:12;-0.80;99.90
77207;DHT22;66190;50.708;7.906;2023-02-15T06:30:38;-0.80;99.90
77207;DHT22;66190;50.708;7.906;2023-02-15T06:33:03;-0.80;99.90
77207;DHT22;66190;50.708;7.906;2023-02-15T06:35:29;-0.80;99.90
77207;DHT22;66190;50.708;7.906;2023-02-15T06:37:55;-0.60;99.90
77207;DHT22;66190;50.708;7.906;2023-02-15T06:40:20;-0.60;99.90
77207;DHT22;66190;50.708;7.906;2023-02-15T06:42:46;-0.50;99.90
77207;DHT22;66190;50.708;7.906;2023-02-15T06:45:12;-0.50;99.90
77207;DHT22;66190;50.708;7.906;2023-02-15T06:47:38;-0.40;99.90
77207;DHT22;66190;50.708;7.906;2023-02-15T06:50:05;-0.40;99.90
77207;DHT22;66190;50.708;7.906;2023-02-15T06:52:31;-0.30;99.90
77207;DHT22;66190;50.708;7.906;2023-02-15T06:54:57;-0.30;99.90
77207;DHT22;66190;50.708;7.906;2023-02-15T06:57:22;-0.30;99.90
77207;DHT22;66190;50.708;7.906;2023-02-15T06:59:48;-0.20;99.90
77207;DHT22;66190;50.708;7.906;2023-02-15T07:02:14;-0.20;99.90
77207;DHT22;66190;50.708;7.906;2023-02-15T07:04:40;-0.30;99.90
77207;DHT22;66190;50.708;7.906;2023-02-15T07:07:08;-0.30;99.90
77207;DHT22;66190;50.708;7.906;2023-02-15T07:09:34;-0.20;99.90
77207;DHT22;66190;50.708;7.906;2023-02-15T07:12:00;-0.20;99.90
77207;DHT22;66190;50.708;7.906;2023-02-15T07:14:44;-0.20;99.90
77207;DHT22;66190;50.708;7.906;2023-02-15T07:17:10;-0.20;99.90
77207;DHT22;66190;50.708;7.906;2023-02-15T07:19:35;-0.10;99.90
77207;DHT22;66190;50.708;7.906;2023-02-15T07:22:01;-0.10;99.90
77207;DHT22;66190;50.708;7.906;2023-02-15T07:24:27;-0.10;99.90
77207;DHT22;66190;50.708;7.906;2023-02-15T07:26:52;0.00;99.80
77207;DHT22;66190;50.708;7.906;2023-02-15T07:29:18;0.10;99.60
77207;DHT22;66190;50.708;7.906;2023-02-15T07:31:44;0.10;99.50
77207;DHT22;66190;50.708;7.906;2023-02-15T07:34:10;0.10;99.50
77207;DHT22;66190;50.708;7.906;2023-02-15T07:36:36;0.10;99.80
77207;DHT22;66190;50.708;7.906;2023-02-15T07:39:02;0.20;99.90
77207;DHT22;66190;50.708;7.906;2023-02-15T07:41:28;0.20;99.40
77207;DHT22;66190;50.708;7.906;2023-02-15T07:43:54;0.40;99.10
77207;DHT22;66190;50.708;7.906;2023-02-15T07:46:19;0.30;98.80
77207;DHT22;66190;50.708;7.906;2023-02-15T07:48:46;0.40;98.80
77207;DHT22;66190;50.708;7.906;2023-02-15T07:51:12;0.50;98.40
77207;DHT22;66190;50.708;7.906;2023-02-15T07:53:38;0.50;98.40
77207;DHT22;66190;50.708;7.906;2023-02-15T07:56:10;0.60;98.20
77207;DHT22;66190;50.708;7.906;2023-02-15T07:58:36;0.60;97.80
77207;DHT22;66190;50.708;7.906;2023-02-15T08:01:27;0.60;97.80
77207;DHT22;66190;50.708;7.906;2023-02-15T08:03:55;0.60;97.70
77207;DHT22;66190;50.708;7.906;2023-02-15T08:06:23;0.70;97.90
77207;DHT22;66190;50.708;7.906;2023-02-15T08:08:49;0.70;97.50
77207;DHT22;66190;50.708;7.906;2023-02-15T08:11:20;0.80;97.20
77207;DHT22;66190;50.708;7.906;2023-02-15T08:13:59;0.80;96.90
77207;DHT22;66190;50.708;7.906;2023-02-15T08:16:40;0.90;96.80
77207;DHT22;66190;50.708;7.906;2023-02-15T08:19:12;1.00;96.60
77207;DHT22;66190;50.708;7.906;2023-02-15T08:21:43;1.00;96.70
77207;DHT22;66190;50.708;7.906;2023-02-15T08:24:10;1.00;96.50
77207;DHT22;66190;50.708;7.906;2023-02-15T08:26:37;1.10;96.30
77207;DHT22;66190;50.708;7.906;2023-02-15T08:29:05;1.00;96.80
77207;DHT22;66190;50.708;7.906;2023-02-15T08:31:32;1.00;97.00
77207;DHT22;66190;50.708;7.906;2023-02-15T08:33:58;1.00;97.00
77207;DHT22;66190;50.708;7.906;2023-02-15T08:36:26;1.10;97.10
77207;DHT22;66190;50.708;7.906;2023-02-15T08:38:52;1.10;97.60
77207;DHT22;66190;50.708;7.906;2023-02-15T08:41:21;1.20;97.30
77207;DHT22;66190;50.708;7.906;2023-02-15T08:43:49;1.20;96.70
77207;DHT22;66190;50.708;7.906;2023-02-15T08:46:17;1.30;97.00
77207;DHT22;66190;50.708;7.906;2023-02-15T08:48:43;1.30;97.30
77207;DHT22;66190;50.708;7.906;2023-02-15T08:51:10;1.30;97.30
77207;DHT22;66190;50.708;7.906;2023-02-15T08:53:41;1.40;97.10
77207;DHT22;66190;50.708;7.906;2023-02-15T08:56:08;1.50;96.60
77207;DHT22;66190;50.708;7.906;2023-02-15T08:58:34;1.50;96.70
77207;DHT22;66190;50.708;7.906;2023-02-15T09:01:00;1.60;96.80
77207;DHT22;66190;50.708;7.906;2023-02-15T09:03:28;1.70;96.40
77207;DHT22;66190;50.708;7.906;2023-02-15T09:06:00;1.80;96.60
77207;DHT22;66190;50.708;7.906;2023-02-15T09:08:27;1.90;95.90
77207;DHT22;66190;50.708;7.906;2023-02-15T09:10:53;1.90;96.20
77207;DHT22;66190;50.708;7.906;2023-02-15T09:13:19;2.00;95.90
77207;DHT22;66190;50.708;7.906;2023-02-15T09:15:46;2.10;96.00
77207;DHT22;66190;50.708;7.906;2023-02-15T09:18:11;2.20;95.20
77207;DHT22;66190;50.708;7.906;2023-02-15T09:20:43;2.30;95.50
77207;DHT22;66190;50.708;7.906;2023-02-15T09:23:08;2.40;95.60
77207;DHT22;66190;50.708;7.906;2023-02-15T09:25:34;2.40;95.10
77207;DHT22;66190;50.708;7.906;2023-02-15T09:28:00;2.50;94.90
77207;DHT22;66190;50.708;7.906;2023-02-15T09:30:25;2.50;94.50
77207;DHT22;66190;50.708;7.906;2023-02-15T09:32:51;2.60;94.90
77207;DHT22;66190;50.708;7.906;2023-02-15T09:35:17;2.60;94.40
77207;DHT22;66190;50.708;7.906;2023-02-15T09:37:42;2.70;94.00
77207;DHT22;66190;50.708;7.906;2023-02-15T09:40:08;2.80;94.10
77207;DHT22;66190;50.708;7.906;2023-02-15T09:43:04;2.80;94.20
77207;DHT22;66190;50.708;7.906;2023-02-15T09:45:50;2.90;93.90
77207;DHT22;66190;50.708;7.906;2023-02-15T09:48:35;3.00;94.00
77207;DHT22;66190;50.708;7.906;2023-02-15T10:01:44;3.50;93.80
77207;DHT22;66190;50.708;7.906;2023-02-15T10:18:01;4.00;92.60
77207;DHT22;66190;50.708;7.906;2023-02-15T10:23:13;4.00;91.70
77207;DHT22;66190;50.708;7.906;2023-02-15T10:26:22;4.10;91.70
77207;DHT22;66190;50.708;7.906;2023-02-15T10:29:09;4.30;91.40
77207;DHT22;66190;50.708;7.906;2023-02-15T10:32:10;4.30;91.10
77207;DHT22;66190;50.708;7.906;2023-02-15T10:35:01;4.40;91.30
77207;DHT22;66190;50.708;7.906;2023-02-15T10:38:01;4.50;91.60
77207;DHT22;66190;50.708;7.906;2023-02-15T10:46:02;4.90;91.30
77207;DHT22;66190;50.708;7.906;2023-02-15T10:54:09;5.20;89.40
77207;DHT22;66190;50.708;7.906;2023-02-15T10:59:24;5.30;89.70
77207;DHT22;66190;50.708;7.906;2023-02-15T11:02:18;5.50;89.80
77207;DHT22;66190;50.708;7.906;2023-02-15T11:05:29;5.60;89.90
77207;DHT22;66190;50.708;7.906;2023-02-15T11:07:43;5.70;89.80
77207;DHT22;66190;50.708;7.906;2023-02-15T11:10:24;5.60;88.70
77207;DHT22;66190;50.708;7.906;2023-02-15T11:12:53;5.60;87.50
77207;DHT22;66190;50.708;7.906;2023-02-15T11:15:42;5.70;88.00
77207;DHT22;66190;50.708;7.906;2023-02-15T11:18:33;5.80;86.40
77207;DHT22;66190;50.708;7.906;2023-02-15T11:21:05;5.90;85.10
77207;DHT22;66190;50.708;7.906;2023-02-15T11:23:35;6.00;85.40
77207;DHT22;66190;50.708;7.906;2023-02-15T11:26:04;6.10;83.20
77207;DHT22;66190;50.708;7.906;2023-02-15T11:29:01;6.30;83.20
77207;DHT22;66190;50.708;7.906;2023-02-15T11:31:43;6.50;81.40
77207;DHT22;66190;50.708;7.906;2023-02-15T11:34:22;6.40;80.90
77207;DHT22;66190;50.708;7.906;2023-02-15T11:36:50;6.60;81.50
77207;DHT22;66190;50.708;7.906;2023-02-15T11:39:18;6.70;79.50
77207;DHT22;66190;50.708;7.906;2023-02-15T11:41:49;6.80;80.40
77207;DHT22;66190;50.708;7.906;2023-02-15T11:44:19;6.90;79.20
77207;DHT22;66190;50.708;7.906;2023-02-15T11:46:46;7.00;76.70
77207;DHT22;66190;50.708;7.906;2023-02-15T11:51:47;7.30;78.10
77207;DHT22;66190;50.708;7.906;2023-02-15T11:54:17;7.30;76.80
77207;DHT22;66190;50.708;7.906;2023-02-15T11:56:43;7.40;77.00
77207;DHT22;66190;50.708;7.906;2023-02-15T11:59:11;7.50;77.40
77207;DHT22;66190;50.708;7.906;2023-02-15T12:01:43;7.60;76.30
77207;DHT22;66190;50.708;7.906;2023-02-15T12:04:25;7.70;73.70
77207;DHT22;66190;50.708;7.906;2023-02-15T12:09:50;7.90;74.60
77207;DHT22;66190;50.708;7.906;2023-02-15T12:14:51;8.20;74.10
77207;DHT22;66190;50.708;7.906;2023-02-15T12:17:17;8.20;74.80
77207;DHT22;66190;50.708;7.906;2023-02-15T12:19:43;8.10;76.50
77207;DHT22;66190;50.708;7.906;2023-02-15T12:22:29;8.40;75.80
77207;DHT22;66190;50.708;7.906;2023-02-15T12:24:58;8.30;75.60
77207;DHT22;66190;50.708;7.906;2023-02-15T12:27:28;8.20;74.80
77207;DHT22;66190;50.708;7.906;2023-02-15T12:30:23;8.20;75.40
77207;DHT22;66190;50.708;7.906;2023-02-15T12:35:35;8.30;74.40
77207;DHT22;66190;50.708;7.906;2023-02-15T12:38:24;8.30;73.10
77207;DHT22;66190;50.708;7.906;2023-02-15T12:43:38;8.40;71.60
77207;DHT22;66190;50.708;7.906;2023-02-15T12:46:26;8.50;75.70
77207;DHT22;66190;50.708;7.906;2023-02-15T12:49:31;8.50;74.30
77207;DHT22;66190;50.708;7.906;2023-02-15T12:52:00;8.50;74.10
77207;DHT22;66190;50.708;7.906;2023-02-15T12:54:36;8.50;72.60
77207;DHT22;66190;50.708;7.906;2023-02-15T12:57:41;8.40;73.00
77207;DHT22;66190;50.708;7.906;2023-02-15T13:02:56;8.60;73.90
77207;DHT22;66190;50.708;7.906;2023-02-15T13:05:36;8.70;72.70
77207;DHT22;66190;50.708;7.906;2023-02-15T13:08:16;8.80;69.50
77207;DHT22;66190;50.708;7.906;2023-02-15T13:11:02;8.70;72.80
77207;DHT22;66190;50.708;7.906;2023-02-15T13:13:33;8.90;69.10
77207;DHT22;66190;50.708;7.906;2023-02-15T13:16:03;8.80;71.00
77207;DHT22;66190;50.708;7.906;2023-02-15T13:18:38;8.90;67.50
77207;DHT22;66190;50.708;7.906;2023-02-15T13:21:12;8.90;67.80
77207;DHT22;66190;50.708;7.906;2023-02-15T13:23:42;8.90;71.00
77207;DHT22;66190;50.708;7.906;2023-02-15T13:26:15;8.90;69.70
77207;DHT22;66190;50.708;7.906;2023-02-15T13:28:46;9.10;68.20
77207;DHT22;66190;50.708;7.906;2023-02-15T13:31:15;9.00;70.10
77207;DHT22;66190;50.708;7.906;2023-02-15T13:33:49;9.30;67.80
77207;DHT22;66190;50.708;7.906;2023-02-15T13:36:30;9.20;66.80
77207;DHT22;66190;50.708;7.906;2023-02-15T13:39:15;9.30;66.50
77207;DHT22;66190;50.708;7.906;2023-02-15T13:41:56;9.30;65.00
77207;DHT22;66190;50.708;7.906;2023-02-15T13:47:52;9.10;66.60
77207;DHT22;66190;50.708;7.906;2023-02-15T13:50:37;9.20;66.10
77207;DHT22;66190;50.708;7.906;2023-02-15T13:55:35;9.40;68.60
77207;DHT22;66190;50.708;7.906;2023-02-15T14:01:07;9.40;65.30
77207;DHT22;66190;50.708;7.906;2023-02-15T14:03:56;9.40;68.10
77207;DHT22;66190;50.708;7.906;2023-02-15T14:12:27;9.30;63.50
77207;DHT22;66190;50.708;7.906;2023-02-15T14:20:56;9.40;68.70
77207;DHT22;66190;50.708;7.906;2023-02-15T14:29:14;9.50;66.20
77207;DHT22;66190;50.708;7.906;2023-02-15T14:31:43;9.50;66.60
77207;DHT22;66190;50.708;7.906;2023-02-15T14:34:34;9.70;65.60
77207;DHT22;66190;50.708;7.906;2023-02-15T14:37:03;9.60;64.60
77207;DHT22;66190;50.708;7.906;2023-02-15T14:40:08;9.60;68.20
77207;DHT22;66190;50.708;7.906;2023-02-15T14:43:00;9.60;66.60
77207;DHT22;66190;50.708;7.906;2023-02-15T14:45:39;9.60;67.90
77207;DHT22;66190;50.708;7.906;2023-02-15T14:48:15;9.40;67.80
77207;DHT22;66190;50.708;7.906;2023-02-15T14:50:44;9.40;68.00
77207;DHT22;66190;50.708;7.906;2023-02-15T14:53:20;9.40;70.00
77207;DHT22;66190;50.708;7.906;2023-02-15T14:55:47;9.40;69.40
77207;DHT22;66190;50.708;7.906;2023-02-15T14:58:26;9.30;68.80
77207;DHT22;66190;50.708;7.906;2023-02-15T15:01:04;9.20;70.50
77207;DHT22;66190;50.708;7.906;2023-02-15T15:03:31;9.00;71.60
77207;DHT22;66190;50.708;7.906;2023-02-15T15:05:59;8.80;71.60
77207;DHT22;66190;50.708;7.906;2023-02-15T15:08:31;8.60;72.10
77207;DHT22;66190;50.708;7.906;2023-02-15T15:11:40;8.60;73.00
77207;DHT22;66190;50.708;7.906;2023-02-15T15:14:04;8.30;73.40
77207;DHT22;66190;50.708;7.906;2023-02-15T15:19:03;8.10;75.40
77207;DHT22;66190;50.708;7.906;2023-02-15T15:38:14;7.30;78.70
77207;DHT22;66190;50.708;7.906;2023-02-15T15:49:50;6.90;80.30
77207;DHT22;66190;50.708;7.906;2023-02-15T15:52:21;6.70;81.00
77207;DHT22;66190;50.708;7.906;2023-02-15T15:54:50;6.70;81.60
77207;DHT22;66190;50.708;7.906;2023-02-15T15:57:39;6.60;81.90
77207;DHT22;66190;50.708;7.906;2023-02-15T16:02:52;6.50;83.70
77207;DHT22;66190;50.708;7.906;2023-02-15T16:05:18;6.40;84.10
77207;DHT22;66190;50.708;7.906;2023-02-15T16:07:45;6.40;84.40
77207;DHT22;66190;50.708;7.906;2023-02-15T16:10:27;6.20;84.40
77207;DHT22;66190;50.708;7.906;2023-02-15T16:12:54;6.00;85.30
77207;DHT22;66190;50.708;7.906;2023-02-15T16:15:46;6.00;86.60
77207;DHT22;66190;50.708;7.906;2023-02-15T16:18:19;5.70;87.40
77207;DHT22;66190;50.708;7.906;2023-02-15T16:20:55;5.60;88.20
77207;DHT22;66190;50.708;7.906;2023-02-15T16:28:39;5.50;90.60
77207;DHT22;66190;50.708;7.906;2023-02-15T16:31:16;5.40;90.40
77207;DHT22;66190;50.708;7.906;2023-02-15T16:33:42;5.30;90.40
77207;DHT22;66190;50.708;7.906;2023-02-15T16:36:28;5.20;90.70
77207;DHT22;66190;50.708;7.906;2023-02-15T16:41:24;5.00;91.60
77207;DHT22;66190;50.708;7.906;2023-02-15T16:43:52;4.90;91.50
77207;DHT22;66190;50.708;7.906;2023-02-15T16:46:33;4.80;92.20
77207;DHT22;66190;50.708;7.906;2023-02-15T16:49:06;4.70;92.20
77207;DHT22;66190;50.708;7.906;2023-02-15T16:51:34;4.60;92.50
77207;DHT22;66190;50.708;7.906;2023-02-15T16:54:06;4.50;92.50
77207;DHT22;66190;50.708;7.906;2023-02-15T16:56:33;4.40;93.20
77207;DHT22;66190;50.708;7.906;2023-02-15T16:59:00;4.40;93.30
77207;DHT22;66190;50.708;7.906;2023-02-15T17:01:31;4.30;93.60
77207;DHT22;66190;50.708;7.906;2023-02-15T17:07:06;4.20;93.70
77207;DHT22;66190;50.708;7.906;2023-02-15T17:09:57;4.00;94.20
77207;DHT22;66190;50.708;7.906;2023-02-15T17:18:06;3.90;94.80
77207;DHT22;66190;50.708;7.906;2023-02-15T17:20:34;4.00;94.70
77207;DHT22;66190;50.708;7.906;2023-02-15T17:23:04;3.80;95.50
77207;DHT22;66190;50.708;7.906;2023-02-15T17:25:38;3.80;95.80
77207;DHT22;66190;50.708;7.906;2023-02-15T17:28:14;3.90;95.80
77207;DHT22;66190;50.708;7.906;2023-02-15T17:30:41;3.90;95.50
77207;DHT22;66190;50.708;7.906;2023-02-15T17:33:24;4.00;95.30
77207;DHT22;66190;50.708;7.906;2023-02-15T17:36:16;3.80;95.70
77207;DHT22;66190;50.708;7.906;2023-02-15T17:43:48;3.70;96.30
77207;DHT22;66190;50.708;7.906;2023-02-15T17:46:14;3.60;96.80
77207;DHT22;66190;50.708;7.906;2023-02-15T17:48:41;3.60;96.70
77207;DHT22;66190;50.708;7.906;2023-02-15T17:51:12;3.60;96.90
77207;DHT22;66190;50.708;7.906;2023-02-15T17:53:38;3.50;96.80
77207;DHT22;66190;50.708;7.906;2023-02-15T17:56:04;3.50;97.00
77207;DHT22;66190;50.708;7.906;2023-02-15T17:58:35;3.40;97.20
77207;DHT22;66190;50.708;7.906;2023-02-15T18:01:10;3.40;97.20
77207;DHT22;66190;50.708;7.906;2023-02-15T18:03:57;3.40;97.50
77207;DHT22;66190;50.708;7.906;2023-02-15T18:06:43;3.30;97.60
77207;DHT22;66190;50.708;7.906;2023-02-15T18:09:27;3.30;98.00
77207;DHT22;66190;50.708;7.906;2023-02-15T18:12:21;3.30;98.10
77207;DHT22;66190;50.708;7.906;2023-02-15T18:14:47;3.30;98.20
77207;DHT22;66190;50.708;7.906;2023-02-15T18:17:14;3.30;98.20
77207;DHT22;66190;50.708;7.906;2023-02-15T18:19:42;3.30;98.20
77207;DHT22;66190;50.708;7.906;2023-02-15T18:22:17;3.30;98.10
77207;DHT22;66190;50.708;7.906;2023-02-15T18:24:44;3.20;97.90
77207;DHT22;66190;50.708;7.906;2023-02-15T18:27:11;3.10;99.00
77207;DHT22;66190;50.708;7.906;2023-02-15T18:29:37;3.00;98.60
77207;DHT22;66190;50.708;7.906;2023-02-15T18:32:06;3.00;98.80
77207;DHT22;66190;50.708;7.906;2023-02-15T18:34:35;2.90;99.00
77207;DHT22;66190;50.708;7.906;2023-02-15T18:37:03;2.90;99.00
77207;DHT22;66190;50.708;7.906;2023-02-15T18:39:45;2.80;99.20
77207;DHT22;66190;50.708;7.906;2023-02-15T18:42:26;2.90;99.00
77207;DHT22;66190;50.708;7.906;2023-02-15T18:44:55;3.00;99.30
77207;DHT22;66190;50.708;7.906;2023-02-15T18:47:21;3.00;99.20
77207;DHT22;66190;50.708;7.906;2023-02-15T18:49:47;2.80;99.20
77207;DHT22;66190;50.708;7.906;2023-02-15T18:52:18;2.80;99.50
77207;DHT22;66190;50.708;7.906;2023-02-15T18:54:44;2.70;99.40
77207;DHT22;66190;50.708;7.906;2023-02-15T18:57:15;2.70;99.90
77207;DHT22;66190;50.708;7.906;2023-02-15T18:59:41;2.70;99.80